sensor_id;sensor_type;location;lat;lon;timestamp;P1;durP1;ratioP1;P2;durP2;ratioP2
45322;SDS011;31382;50.200;8.674;2023-12-07T00:00:50;13.10;;;6.05;;
45322;SDS011;31382;50.200;8.674;2023-12-07T00:05:52;13.07;;;6.10;;
45322;SDS011;31382;50.200;8.674;2023-12-07T00:10:53;13.40;;;7.00;;
45322;SDS011;31382;50.200;8.674;2023-12-07T00:15:55;12.55;;;6.25;;
45322;SDS011;31382;50.200;8.674;2023-12-07T00:20:56;11.32;;;6.05;;
45322;SDS011;31382;50.200;8.674;2023-12-07T00:25:57;13.27;;;6.53;;
45322;SDS011;31382;50.200;8.674;2023-12-07T00:30:59;10.90;;;5.90;;
45322;SDS011;31382;50.200;8.674;2023-12-07T00:36:00;16.50;;;6.55;;
45322;SDS011;31382;50.200;8.674;2023-12-07T00:41:02;13.80;;;5.75;;
45322;SDS011;31382;50.200;8.674;2023-12-07T00:46:03;12.52;;;6.07;;
45322;SDS011;31382;50.200;8.674;2023-12-07T00:51:09;9.38;;;5.63;;
45322;SDS011;31382;50.200;8.674;2023-12-07T00:56:11;11.65;;;6.75;;
45322;SDS011;31382;50.200;8.674;2023-12-07T01:01:12;11.45;;;5.28;;
45322;SDS011;31382;50.200;8.674;2023-12-07T01:06:14;13.45;;;6.45;;
45322;SDS011;31382;50.200;8.674;2023-12-07T01:11:18;13.50;;;6.63;;
45322;SDS011;31382;50.200;8.674;2023-12-07T01:16:19;13.07;;;6.40;;
45322;SDS011;31382;50.200;8.674;2023-12-07T01:21:20;14.30;;;6.65;;
45322;SDS011;31382;50.200;8.674;2023-12-07T01:26:22;13.02;;;6.47;;
45322;SDS011;31382;50.200;8.674;2023-12-07T01:31:23;15.25;;;6.40;;
45322;SDS011;31382;50.200;8.674;2023-12-07T01:36:25;14.32;;;7.07;;
45322;SDS011;31382;50.200;8.674;2023-12-07T01:41:26;13.18;;;6.05;;
45322;SDS011;31382;50.200;8.674;2023-12-07T01:46:28;13.77;;;6.63;;
45322;SDS011;31382;50.200;8.674;2023-12-07T01:51:29;14.88;;;6.80;;
45322;SDS011;31382;50.200;8.674;2023-12-07T01:56:32;16.83;;;6.82;;
45322;SDS011;31382;50.200;8.674;2023-12-07T02:01:33;11.40;;;6.72;;
45322;SDS011;31382;50.200;8.674;2023-12-07T02:06:35;18.67;;;7.20;;
45322;SDS011;31382;50.200;8.674;2023-12-07T02:11:36;14.65;;;8.05;;
45322;SDS011;31382;50.200;8.674;2023-12-07T02:16:55;12.63;;;6.13;;
45322;SDS011;31382;50.200;8.674;2023-12-07T02:22:39;16.23;;;7.20;;
45322;SDS011;31382;50.200;8.674;2023-12-07T02:27:50;14.70;;;7.32;;
45322;SDS011;31382;50.200;8.674;2023-12-07T02:32:52;16.33;;;7.05;;
45322;SDS011;31382;50.200;8.674;2023-12-07T02:37:53;13.65;;;6.45;;
45322;SDS011;31382;50.200;8.674;2023-12-07T02:42:56;13.05;;;6.00;;
45322;SDS011;31382;50.200;8.674;2023-12-07T02:47:58;15.60;;;7.07;;
45322;SDS011;31382;50.200;8.674;2023-12-07T02:53:00;13.20;;;7.32;;
45322;SDS011;31382;50.200;8.674;2023-12-07T02:58:01;14.63;;;6.40;;
45322;SDS011;31382;50.200;8.674;2023-12-07T03:03:03;12.88;;;6.57;;
45322;SDS011;31382;50.200;8.674;2023-12-07T03:08:05;16.90;;;6.63;;
45322;SDS011;31382;50.200;8.674;2023-12-07T03:13:06;16.25;;;6.55;;
45322;SDS011;31382;50.200;8.674;2023-12-07T03:18:08;22.13;;;8.23;;
45322;SDS011;31382;50.200;8.674;2023-12-07T03:23:09;15.43;;;7.65;;
45322;SDS011;31382;50.200;8.674;2023-12-07T03:28:11;17.52;;;7.47;;
45322;SDS011;31382;50.200;8.674;2023-12-07T03:33:12;16.42;;;7.57;;
45322;SDS011;31382;50.200;8.674;2023-12-07T03:38:14;13.68;;;6.78;;
45322;SDS011;31382;50.200;8.674;2023-12-07T03:43:18;16.23;;;6.97;;
45322;SDS011;31382;50.200;8.674;2023-12-07T03:48:20;14.52;;;6.93;;
45322;SDS011;31382;50.200;8.674;2023-12-07T03:53:22;17.00;;;7.07;;
45322;SDS011;31382;50.200;8.674;2023-12-07T03:58:23;21.33;;;7.30;;
45322;SDS011;31382;50.200;8.674;2023-12-07T04:03:25;20.77;;;7.53;;
45322;SDS011;31382;50.200;8.674;2023-12-07T04:08:26;19.77;;;8.20;;
45322;SDS011;31382;50.200;8.674;2023-12-07T04:13:27;22.38;;;7.68;;
45322;SDS011;31382;50.200;8.674;2023-12-07T04:18:29;18.38;;;7.32;;
45322;SDS011;31382;50.200;8.674;2023-12-07T04:23:30;22.52;;;7.03;;
45322;SDS011;31382;50.200;8.674;2023-12-07T04:28:32;17.05;;;7.53;;
45322;SDS011;31382;50.200;8.674;2023-12-07T04:33:33;19.05;;;7.10;;
45322;SDS011;31382;50.200;8.674;2023-12-07T04:38:35;15.75;;;7.47;;
45322;SDS011;31382;50.200;8.674;2023-12-07T04:43:36;16.33;;;7.78;;
45322;SDS011;31382;50.200;8.674;2023-12-07T04:48:38;15.95;;;7.40;;
45322;SDS011;31382;50.200;8.674;2023-12-07T04:53:39;16.30;;;7.20;;
45322;SDS011;31382;50.200;8.674;2023-12-07T04:58:41;24.83;;;8.70;;
45322;SDS011;31382;50.200;8.674;2023-12-07T05:03:43;25.23;;;8.18;;
45322;SDS011;31382;50.200;8.674;2023-12-07T05:08:44;18.63;;;7.30;;
45322;SDS011;31382;50.200;8.674;2023-12-07T05:13:46;19.65;;;7.63;;
45322;SDS011;31382;50.200;8.674;2023-12-07T05:18:49;18.25;;;7.47;;
45322;SDS011;31382;50.200;8.674;2023-12-07T05:23:50;18.85;;;7.40;;
45322;SDS011;31382;50.200;8.674;2023-12-07T05:28:52;16.95;;;6.95;;
45322;SDS011;31382;50.200;8.674;2023-12-07T05:33:53;21.52;;;8.45;;
45322;SDS011;31382;50.200;8.674;2023-12-07T05:38:55;18.70;;;8.32;;
45322;SDS011;31382;50.200;8.674;2023-12-07T05:43:56;15.98;;;7.68;;
45322;SDS011;31382;50.200;8.674;2023-12-07T05:48:58;25.95;;;7.72;;
45322;SDS011;31382;50.200;8.674;2023-12-07T05:53:59;18.70;;;7.35;;
45322;SDS011;31382;50.200;8.674;2023-12-07T05:59:01;17.00;;;6.95;;
45322;SDS011;31382;50.200;8.674;2023-12-07T06:04:02;20.40;;;7.75;;
45322;SDS011;31382;50.200;8.674;2023-12-07T06:09:04;21.33;;;8.70;;
45322;SDS011;31382;50.200;8.674;2023-12-07T06:14:09;21.92;;;8.88;;
45322;SDS011;31382;50.200;8.674;2023-12-07T06:19:10;21.98;;;8.27;;
45322;SDS011;31382;50.200;8.674;2023-12-07T06:24:12;19.83;;;7.75;;
45322;SDS011;31382;50.200;8.674;2023-12-07T06:29:15;24.75;;;8.73;;
45322;SDS011;31382;50.200;8.674;2023-12-07T06:34:16;22.17;;;7.45;;
45322;SDS011;31382;50.200;8.674;2023-12-07T06:39:18;19.17;;;7.20;;
45322;SDS011;31382;50.200;8.674;2023-12-07T06:44:19;19.05;;;8.73;;
45322;SDS011;31382;50.200;8.674;2023-12-07T06:49:21;25.75;;;9.02;;
45322;SDS011;31382;50.200;8.674;2023-12-07T06:54:26;19.25;;;8.70;;
45322;SDS011;31382;50.200;8.674;2023-12-07T06:59:28;24.75;;;9.48;;
45322;SDS011;31382;50.200;8.674;2023-12-07T07:04:29;25.25;;;8.02;;
45322;SDS011;31382;50.200;8.674;2023-12-07T07:09:31;24.35;;;9.65;;
45322;SDS011;31382;50.200;8.674;2023-12-07T07:14:32;25.67;;;9.70;;
45322;SDS011;31382;50.200;8.674;2023-12-07T07:19:34;30.10;;;11.50;;
45322;SDS011;31382;50.200;8.674;2023-12-07T07:24:35;18.98;;;8.52;;
45322;SDS011;31382;50.200;8.674;2023-12-07T07:29:37;22.67;;;9.20;;
45322;SDS011;31382;50.200;8.674;2023-12-07T07:34:38;22.20;;;9.25;;
45322;SDS011;31382;50.200;8.674;2023-12-07T07:39:40;26.55;;;9.77;;
45322;SDS011;31382;50.200;8.674;2023-12-07T07:44:42;29.90;;;9.35;;
45322;SDS011;31382;50.200;8.674;2023-12-07T07:49:43;33.22;;;12.73;;
45322;SDS011;31382;50.200;8.674;2023-12-07T07:54:45;25.77;;;10.23;;
45322;SDS011;31382;50.200;8.674;2023-12-07T07:59:46;25.80;;;10.52;;
45322;SDS011;31382;50.200;8.674;2023-12-07T08:04:48;32.35;;;10.50;;
45322;SDS011;31382;50.200;8.674;2023-12-07T08:09:49;23.67;;;10.38;;
45322;SDS011;31382;50.200;8.674;2023-12-07T08:14:50;27.48;;;10.38;;
45322;SDS011;31382;50.200;8.674;2023-12-07T08:19:52;34.30;;;11.95;;
45322;SDS011;31382;50.200;8.674;2023-12-07T08:24:54;20.92;;;9.88;;
45322;SDS011;31382;50.200;8.674;2023-12-07T08:30:08;24.73;;;9.90;;
45322;SDS011;31382;50.200;8.674;2023-12-07T08:35:10;24.85;;;10.00;;
45322;SDS011;31382;50.200;8.674;2023-12-07T08:40:12;23.25;;;11.10;;
45322;SDS011;31382;50.200;8.674;2023-12-07T08:45:16;30.45;;;10.77;;
45322;SDS011;31382;50.200;8.674;2023-12-07T08:50:18;26.75;;;11.27;;
45322;SDS011;31382;50.200;8.674;2023-12-07T08:55:19;32.90;;;13.73;;
45322;SDS011;31382;50.200;8.674;2023-12-07T09:00:21;35.38;;;14.75;;
45322;SDS011;31382;50.200;8.674;2023-12-07T09:05:26;32.20;;;12.30;;
45322;SDS011;31382;50.200;8.674;2023-12-07T09:10:27;45.33;;;13.38;;
45322;SDS011;31382;50.200;8.674;2023-12-07T09:15:29;36.17;;;12.43;;
45322;SDS011;31382;50.200;8.674;2023-12-07T09:20:31;32.95;;;13.00;;
45322;SDS011;31382;50.200;8.674;2023-12-07T09:25:32;42.10;;;13.48;;
45322;SDS011;31382;50.200;8.674;2023-12-07T09:30:34;40.50;;;13.07;;
45322;SDS011;31382;50.200;8.674;2023-12-07T09:35:35;36.38;;;13.35;;
45322;SDS011;31382;50.200;8.674;2023-12-07T09:40:37;39.42;;;13.32;;
45322;SDS011;31382;50.200;8.674;2023-12-07T09:45:38;32.80;;;11.80;;
45322;SDS011;31382;50.200;8.674;2023-12-07T09:50:40;38.55;;;12.13;;
45322;SDS011;31382;50.200;8.674;2023-12-07T09:55:41;36.53;;;13.18;;
45322;SDS011;31382;50.200;8.674;2023-12-07T10:00:43;34.20;;;11.68;;
45322;SDS011;31382;50.200;8.674;2023-12-07T10:05:54;35.08;;;12.80;;
45322;SDS011;31382;50.200;8.674;2023-12-07T10:11:10;32.75;;;14.38;;
45322;SDS011;31382;50.200;8.674;2023-12-07T10:16:14;37.53;;;15.50;;
45322;SDS011;31382;50.200;8.674;2023-12-07T10:21:23;75.68;;;26.08;;
45322;SDS011;31382;50.200;8.674;2023-12-07T10:26:32;39.53;;;16.60;;
45322;SDS011;31382;50.200;8.674;2023-12-07T10:31:37;34.60;;;14.88;;
45322;SDS011;31382;50.200;8.674;2023-12-07T10:36:39;35.90;;;15.10;;
45322;SDS011;31382;50.200;8.674;2023-12-07T10:41:43;36.15;;;15.25;;
45322;SDS011;31382;50.200;8.674;2023-12-07T10:46:44;32.88;;;15.27;;
45322;SDS011;31382;50.200;8.674;2023-12-07T10:51:59;32.50;;;13.98;;
45322;SDS011;31382;50.200;8.674;2023-12-07T10:57:02;35.17;;;13.70;;
45322;SDS011;31382;50.200;8.674;2023-12-07T11:02:06;32.70;;;14.55;;
45322;SDS011;31382;50.200;8.674;2023-12-07T11:07:13;32.10;;;15.38;;
45322;SDS011;31382;50.200;8.674;2023-12-07T11:12:20;34.10;;;15.05;;
45322;SDS011;31382;50.200;8.674;2023-12-07T11:17:30;39.03;;;15.95;;
45322;SDS011;31382;50.200;8.674;2023-12-07T11:22:49;38.38;;;15.55;;
45322;SDS011;31382;50.200;8.674;2023-12-07T11:28:00;43.58;;;18.48;;
45322;SDS011;31382;50.200;8.674;2023-12-07T11:33:06;32.80;;;14.95;;
45322;SDS011;31382;50.200;8.674;2023-12-07T11:38:08;31.98;;;14.23;;
45322;SDS011;31382;50.200;8.674;2023-12-07T11:48:48;36.08;;;14.20;;
45322;SDS011;31382;50.200;8.674;2023-12-07T11:53:50;38.85;;;14.65;;
45322;SDS011;31382;50.200;8.674;2023-12-07T11:58:52;37.17;;;14.32;;
45322;SDS011;31382;50.200;8.674;2023-12-07T12:03:54;32.50;;;15.23;;
45322;SDS011;31382;50.200;8.674;2023-12-07T12:08:56;34.80;;;14.25;;
45322;SDS011;31382;50.200;8.674;2023-12-07T12:13:57;33.67;;;14.77;;
45322;SDS011;31382;50.200;8.674;2023-12-07T12:18:59;33.75;;;14.38;;
45322;SDS011;31382;50.200;8.674;2023-12-07T12:24:01;36.40;;;16.02;;
45322;SDS011;31382;50.200;8.674;2023-12-07T12:29:02;35.42;;;15.38;;
45322;SDS011;31382;50.200;8.674;2023-12-07T12:34:07;45.47;;;16.60;;
45322;SDS011;31382;50.200;8.674;2023-12-07T12:39:15;50.15;;;17.40;;
45322;SDS011;31382;50.200;8.674;2023-12-07T12:44:30;49.13;;;17.38;;
45322;SDS011;31382;50.200;8.674;2023-12-07T12:49:38;39.08;;;15.52;;
45322;SDS011;31382;50.200;8.674;2023-12-07T12:54:45;46.70;;;16.20;;
45322;SDS011;31382;50.200;8.674;2023-12-07T12:59:48;55.15;;;17.17;;
45322;SDS011;31382;50.200;8.674;2023-12-07T13:04:52;51.78;;;16.65;;
45322;SDS011;31382;50.200;8.674;2023-12-07T13:09:53;40.83;;;14.73;;
45322;SDS011;31382;50.200;8.674;2023-12-07T13:14:55;38.53;;;14.10;;
45322;SDS011;31382;50.200;8.674;2023-12-07T13:19:59;41.63;;;14.90;;
45322;SDS011;31382;50.200;8.674;2023-12-07T13:25:01;36.33;;;14.38;;
45322;SDS011;31382;50.200;8.674;2023-12-07T13:30:03;44.15;;;15.70;;
45322;SDS011;31382;50.200;8.674;2023-12-07T13:35:08;51.88;;;17.13;;
45322;SDS011;31382;50.200;8.674;2023-12-07T13:40:10;44.83;;;16.05;;
45322;SDS011;31382;50.200;8.674;2023-12-07T13:45:13;41.60;;;14.73;;
45322;SDS011;31382;50.200;8.674;2023-12-07T13:50:15;45.92;;;15.93;;
45322;SDS011;31382;50.200;8.674;2023-12-07T13:55:16;34.63;;;13.68;;
45322;SDS011;31382;50.200;8.674;2023-12-07T14:00:18;39.88;;;14.90;;
45322;SDS011;31382;50.200;8.674;2023-12-07T14:05:21;41.03;;;14.45;;
45322;SDS011;31382;50.200;8.674;2023-12-07T14:10:23;37.42;;;14.55;;
45322;SDS011;31382;50.200;8.674;2023-12-07T14:15:25;39.72;;;14.63;;
45322;SDS011;31382;50.200;8.674;2023-12-07T14:20:42;41.28;;;14.13;;
45322;SDS011;31382;50.200;8.674;2023-12-07T14:26:04;44.53;;;16.08;;
45322;SDS011;31382;50.200;8.674;2023-12-07T14:31:07;40.30;;;13.70;;
45322;SDS011;31382;50.200;8.674;2023-12-07T14:41:17;38.10;;;14.45;;
45322;SDS011;31382;50.200;8.674;2023-12-07T14:46:18;44.53;;;16.80;;
45322;SDS011;31382;50.200;8.674;2023-12-07T14:51:20;38.00;;;15.55;;
45322;SDS011;31382;50.200;8.674;2023-12-07T14:56:22;41.17;;;15.80;;
45322;SDS011;31382;50.200;8.674;2023-12-07T15:01:24;39.03;;;14.75;;
45322;SDS011;31382;50.200;8.674;2023-12-07T15:06:25;39.45;;;17.63;;
45322;SDS011;31382;50.200;8.674;2023-12-07T15:11:28;33.00;;;14.27;;
45322;SDS011;31382;50.200;8.674;2023-12-07T15:16:30;33.35;;;14.35;;
45322;SDS011;31382;50.200;8.674;2023-12-07T15:21:31;43.28;;;16.15;;
45322;SDS011;31382;50.200;8.674;2023-12-07T15:26:33;34.63;;;13.43;;
45322;SDS011;31382;50.200;8.674;2023-12-07T15:31:35;30.15;;;12.65;;
45322;SDS011;31382;50.200;8.674;2023-12-07T15:36:36;25.67;;;11.27;;
45322;SDS011;31382;50.200;8.674;2023-12-07T15:41:38;31.13;;;11.90;;
45322;SDS011;31382;50.200;8.674;2023-12-07T15:46:39;26.17;;;10.82;;
45322;SDS011;31382;50.200;8.674;2023-12-07T15:51:40;25.27;;;10.82;;
45322;SDS011;31382;50.200;8.674;2023-12-07T15:56:42;19.73;;;9.35;;
45322;SDS011;31382;50.200;8.674;2023-12-07T16:01:45;18.63;;;8.93;;
45322;SDS011;31382;50.200;8.674;2023-12-07T16:06:46;14.05;;;7.30;;
45322;SDS011;31382;50.200;8.674;2023-12-07T16:11:48;16.95;;;7.20;;
45322;SDS011;31382;50.200;8.674;2023-12-07T16:16:49;12.98;;;6.97;;
45322;SDS011;31382;50.200;8.674;2023-12-07T16:21:51;13.30;;;6.95;;
45322;SDS011;31382;50.200;8.674;2023-12-07T16:26:53;11.98;;;7.40;;
45322;SDS011;31382;50.200;8.674;2023-12-07T16:31:55;10.98;;;5.32;;
45322;SDS011;31382;50.200;8.674;2023-12-07T16:36:56;11.45;;;5.60;;
45322;SDS011;31382;50.200;8.674;2023-12-07T16:41:58;10.10;;;6.32;;
45322;SDS011;31382;50.200;8.674;2023-12-07T16:47:03;9.98;;;4.38;;
45322;SDS011;31382;50.200;8.674;2023-12-07T16:52:05;13.65;;;6.25;;
45322;SDS011;31382;50.200;8.674;2023-12-07T16:57:06;9.50;;;5.63;;
45322;SDS011;31382;50.200;8.674;2023-12-07T17:02:08;9.60;;;5.63;;
45322;SDS011;31382;50.200;8.674;2023-12-07T17:07:09;11.68;;;5.85;;
45322;SDS011;31382;50.200;8.674;2023-12-07T17:12:11;14.13;;;6.65;;
45322;SDS011;31382;50.200;8.674;2023-12-07T17:17:13;11.68;;;5.40;;
45322;SDS011;31382;50.200;8.674;2023-12-07T17:22:14;9.65;;;4.80;;
45322;SDS011;31382;50.200;8.674;2023-12-07T17:27:16;13.82;;;5.60;;
45322;SDS011;31382;50.200;8.674;2023-12-07T17:32:18;11.75;;;5.47;;
45322;SDS011;31382;50.200;8.674;2023-12-07T17:37:19;10.13;;;5.45;;
45322;SDS011;31382;50.200;8.674;2023-12-07T17:42:21;11.65;;;5.28;;
45322;SDS011;31382;50.200;8.674;2023-12-07T17:47:22;12.23;;;6.35;;
45322;SDS011;31382;50.200;8.674;2023-12-07T17:52:25;12.98;;;6.95;;
45322;SDS011;31382;50.200;8.674;2023-12-07T17:57:26;11.93;;;6.78;;
45322;SDS011;31382;50.200;8.674;2023-12-07T18:02:28;12.20;;;6.45;;
45322;SDS011;31382;50.200;8.674;2023-12-07T18:07:29;12.00;;;5.93;;
45322;SDS011;31382;50.200;8.674;2023-12-07T18:12:31;15.27;;;6.88;;
45322;SDS011;31382;50.200;8.674;2023-12-07T18:17:32;15.63;;;7.80;;
45322;SDS011;31382;50.200;8.674;2023-12-07T18:22:34;20.05;;;9.18;;
45322;SDS011;31382;50.200;8.674;2023-12-07T18:27:35;84.53;;;26.35;;
45322;SDS011;31382;50.200;8.674;2023-12-07T18:32:36;23.58;;;11.82;;
45322;SDS011;31382;50.200;8.674;2023-12-07T18:37:38;14.77;;;8.77;;
45322;SDS011;31382;50.200;8.674;2023-12-07T18:42:41;17.85;;;8.25;;
45322;SDS011;31382;50.200;8.674;2023-12-07T18:47:43;14.48;;;7.75;;
45322;SDS011;31382;50.200;8.674;2023-12-07T18:52:44;11.77;;;6.90;;
45322;SDS011;31382;50.200;8.674;2023-12-07T18:57:46;12.93;;;6.15;;
45322;SDS011;31382;50.200;8.674;2023-12-07T19:02:47;11.98;;;5.95;;
45322;SDS011;31382;50.200;8.674;2023-12-07T19:07:49;11.85;;;6.55;;
45322;SDS011;31382;50.200;8.674;2023-12-07T19:12:51;14.02;;;5.90;;
45322;SDS011;31382;50.200;8.674;2023-12-07T19:17:52;13.80;;;6.32;;
45322;SDS011;31382;50.200;8.674;2023-12-07T19:22:54;16.40;;;5.57;;
45322;SDS011;31382;50.200;8.674;2023-12-07T19:27:56;15.57;;;6.45;;
45322;SDS011;31382;50.200;8.674;2023-12-07T19:32:57;13.43;;;6.93;;
45322;SDS011;31382;50.200;8.674;2023-12-07T19:38:03;21.27;;;8.23;;
45322;SDS011;31382;50.200;8.674;2023-12-07T19:43:06;16.23;;;7.75;;
45322;SDS011;31382;50.200;8.674;2023-12-07T19:48:07;19.00;;;8.02;;
45322;SDS011;31382;50.200;8.674;2023-12-07T19:53:09;17.77;;;8.63;;
45322;SDS011;31382;50.200;8.674;2023-12-07T19:58:11;20.58;;;8.73;;
45322;SDS011;31382;50.200;8.674;2023-12-07T20:03:13;27.17;;;9.75;;
45322;SDS011;31382;50.200;8.674;2023-12-07T20:08:15;23.42;;;9.77;;
45322;SDS011;31382;50.200;8.674;2023-12-07T20:13:16;19.65;;;8.23;;
45322;SDS011;31382;50.200;8.674;2023-12-07T20:18:18;20.40;;;9.05;;
45322;SDS011;31382;50.200;8.674;2023-12-07T20:23:20;22.55;;;9.65;;
45322;SDS011;31382;50.200;8.674;2023-12-07T20:28:21;21.23;;;9.18;;
45322;SDS011;31382;50.200;8.674;2023-12-07T20:33:23;25.40;;;9.93;;
45322;SDS011;31382;50.200;8.674;2023-12-07T20:38:25;20.92;;;9.95;;
45322;SDS011;31382;50.200;8.674;2023-12-07T20:43:26;23.38;;;8.50;;
45322;SDS011;31382;50.200;8.674;2023-12-07T20:48:28;25.52;;;8.88;;
45322;SDS011;31382;50.200;8.674;2023-12-07T20:53:29;24.80;;;10.82;;
45322;SDS011;31382;50.200;8.674;2023-12-07T20:58:32;28.42;;;9.40;;
45322;SDS011;31382;50.200;8.674;2023-12-07T21:03:34;29.98;;;11.27;;
45322;SDS011;31382;50.200;8.674;2023-12-07T21:08:37;24.45;;;9.80;;
45322;SDS011;31382;50.200;8.674;2023-12-07T21:13:39;27.45;;;9.77;;
45322;SDS011;31382;50.200;8.674;2023-12-07T21:18:41;25.27;;;10.07;;
45322;SDS011;31382;50.200;8.674;2023-12-07T21:23:42;23.85;;;10.57;;
45322;SDS011;31382;50.200;8.674;2023-12-07T21:28:44;25.20;;;9.82;;
45322;SDS011;31382;50.200;8.674;2023-12-07T21:33:45;22.48;;;8.88;;
45322;SDS011;31382;50.200;8.674;2023-12-07T21:38:47;31.48;;;11.98;;
45322;SDS011;31382;50.200;8.674;2023-12-07T21:43:49;26.00;;;10.60;;
45322;SDS011;31382;50.200;8.674;2023-12-07T21:48:50;25.85;;;10.88;;
45322;SDS011;31382;50.200;8.674;2023-12-07T21:53:52;22.95;;;10.98;;
45322;SDS011;31382;50.200;8.674;2023-12-07T21:58:53;26.10;;;10.20;;
45322;SDS011;31382;50.200;8.674;2023-12-07T22:03:55;23.25;;;10.32;;
45322;SDS011;31382;50.200;8.674;2023-12-07T22:08:56;25.42;;;10.75;;
45322;SDS011;31382;50.200;8.674;2023-12-07T22:13:58;26.27;;;9.48;;
45322;SDS011;31382;50.200;8.674;2023-12-07T22:18:59;22.15;;;8.77;;
45322;SDS011;31382;50.200;8.674;2023-12-07T22:24:00;30.63;;;10.98;;
45322;SDS011;31382;50.200;8.674;2023-12-07T22:29:02;22.70;;;10.10;;
45322;SDS011;31382;50.200;8.674;2023-12-07T22:34:03;25.05;;;11.40;;
45322;SDS011;31382;50.200;8.674;2023-12-07T22:39:05;22.70;;;9.68;;
45322;SDS011;31382;50.200;8.674;2023-12-07T22:44:07;23.27;;;9.52;;
45322;SDS011;31382;50.200;8.674;2023-12-07T22:49:08;20.90;;;10.25;;
45322;SDS011;31382;50.200;8.674;2023-12-07T22:54:10;24.75;;;9.93;;
45322;SDS011;31382;50.200;8.674;2023-12-07T22:59:11;26.02;;;9.70;;
45322;SDS011;31382;50.200;8.674;2023-12-07T23:04:12;27.30;;;10.80;;
45322;SDS011;31382;50.200;8.674;2023-12-07T23:09:14;24.48;;;10.02;;
45322;SDS011;31382;50.200;8.674;2023-12-07T23:14:15;26.17;;;10.63;;
45322;SDS011;31382;50.200;8.674;2023-12-07T23:19:17;24.67;;;10.30;;
45322;SDS011;31382;50.200;8.674;2023-12-07T23:24:19;24.70;;;9.82;;
45322;SDS011;31382;50.200;8.674;2023-12-07T23:29:20;32.33;;;13.05;;
45322;SDS011;31382;50.200;8.674;2023-12-07T23:34:22;26.85;;;11.75;;
45322;SDS011;31382;50.200;8.674;2023-12-07T23:39:24;26.30;;;10.82;;
45322;SDS011;31382;50.200;8.674;2023-12-07T23:44:26;24.48;;;10.02;;
45322;SDS011;31382;50.200;8.674;2023-12-07T23:49:27;23.48;;;9.90;;
45322;SDS011;31382;50.200;8.674;2023-12-07T23:54:29;24.67;;;9.48;;
45322;SDS011;31382;50.200;8.674;2023-12-07T23:59:31;26.15;;;10.30;;
